Weather observations for the past three days for
Moorhead Municipal Airport
Imperial (Metric)
Date Time (cdt) Wind (mph) Vis. (mi.) Weather Sky Cond. Temperature (ºF) Relative Humidity Wind Chill (°F) Heat Index (°F) Pressure Precipitation (in)
Air Dwpt 6 hour altimeter (in) sea level (mb) 1 hr 3 hr 6 hr
Max. Min.
03 21:55 SW 15 10.00 Fair CLR 62.6 39.2 42% 29.46 0.0
03 21:35 SW 13 10.00 Fair CLR 62.6 39.2 42% 29.47 0.0
03 21:15 SW 13 10.00 Fair CLR 62.6 39.2 42% 29.48 0.0
03 20:55 S 13 G 18 10.00 Fair CLR 64.4 39.2 40% 29.48 0.0
03 20:35 SW 12 10.00 Fair CLR 66.2 39.2 37% 29.5 0.0
03 20:15 SW 12 10.00 Fair CLR 68 39.2 35% 29.51 0.0
03 19:55 SW 12 10.00 Fair CLR 69.8 39.2 33% 29.52 0.0
03 19:35 W 16 G 24 10.00 Fair CLR 69.8 39.2 33% 29.53 0.0
03 19:15 SW 17 10.00 Fair CLR 71.6 39.2 31% 29.55 0.0
03 18:55 W 17 G 24 10.00 Fair CLR 71.6 39.2 31% 29.56 0.0
03 18:35 W 17 G 25 10.00 Fair CLR 71.6 41 33% 29.57 0.0
03 18:15 W 20 G 24 10.00 Fair CLR 71.6 41 33% 29.58 0.0
03 17:55 W 22 G 29 10.00 Partly Cloudy and Breezy SCT110 73.4 41 31% 29.59 0.0
03 17:35 W 22 G 25 10.00 Fair and Breezy CLR 73.4 42.8 33% 29.6 0.0
03 17:15 W 20 G 26 10.00 Fair CLR 73.4 42.8 33% 29.61 0.0
03 16:55 W 20 G 28 10.00 Fair CLR 73.4 42.8 33% 29.63 0.0
03 16:35 W 18 G 31 10.00 Partly Cloudy SCT095 71.6 41 33% 29.63 0.0
03 16:15 W 20 G 23 10.00 Fair CLR 71.6 41 33% 29.65 0.0
03 15:55 W 17 G 21 10.00 Fair CLR 71.6 42.8 36% 29.66 0.0
03 15:35 W 13 G 22 10.00 Fair CLR 69.8 41 35% 29.67 0.0
03 15:15 W 16 G 21 10.00 Fair CLR 69.8 41 35% 29.69 0.0
03 14:55 NW 9 G 22 10.00 Fair CLR 69.8 41 35% 29.71 0.0
03 14:35 W 12 G 21 10.00 Fair CLR 68 39.2 35% 29.72 0.0
03 14:15 W 13 G 20 10.00 Fair CLR 69.8 41 35% 29.73 0.0
03 13:55 W 12 G 24 10.00 Fair CLR 68 39.2 35% 29.74 0.0
03 13:35 W 15 G 30 10.00 Fair CLR 66.2 37.4 35% 29.76 0.0
03 13:15 NW 12 G 24 10.00 Fair CLR 66.2 37.4 35% 29.78 0.0
03 12:55 W 8 G 20 10.00 Fair CLR 64.4 37.4 37% 29.79 0.0
03 12:35 W 9 10.00 Fair CLR 62.6 37.4 39% 29.8 0.0
03 12:15 W 10 10.00 Fair CLR 62.6 37.4 39% 29.81 0.0
03 11:55 W 9 10.00 Fair CLR 60.8 37.4 42% 29.82 0.0
03 11:35 NW 10 10.00 Fair CLR 60.8 37.4 42% 29.84 0.0
03 11:15 NW 6 10.00 Fair CLR 57.2 33.8 41% 29.84 0.0
03 10:55 NW 8 10.00 Fair CLR 57.2 35.6 44% 29.84 0.0
03 10:35 NW 5 10.00 Fair CLR 55.4 37.4 51% 29.84 0.0
03 10:15 NW 8 10.00 Fair CLR 55.4 35.6 47% 29.85 0.0
03 09:55 N 7 10.00 Fair CLR 51.8 35.6 54% 29.85 0.0
03 09:35 NW 7 10.00 Fair CLR 51.8 35.6 54% 29.85 0.0
03 09:15 N 8 10.00 Fair CLR 48.2 35.6 62% 45 29.86 0.0
03 08:55 N 8 10.00 Fair CLR 46.4 33.8 62% 43 29.86 0.0
03 08:35 NW 7 10.00 Fair CLR 46.4 33.8 62% 43 29.86 0.0
03 08:15 N 9 10.00 Fair CLR 44.6 33.8 66% 40 29.85 0.0
03 07:55 N 8 10.00 Fair CLR 42.8 33.8 71% 39 29.85 0.0
03 07:35 NW 6 10.00 Fair CLR 41 32 70% 38 29.84 0.0
03 07:15 NW 5 10.00 Fair CLR 37.4 30.2 75% 34 29.84 0.0
03 06:55 Calm 10.00 Fair CLR 35.6 28.4 75% 29.83 0.0
03 06:35 N 3 10.00 Fair CLR 35.6 28.4 75% 29.83 0.0
03 06:15 N 5 10.00 Fair CLR 35.6 28.4 75% 32 29.82 0.0
03 05:55 N 5 10.00 Fair CLR 35.6 28.4 75% 32 29.82 0.0
03 05:35 N 7 10.00 Fair CLR 37.4 30.2 75% 33 29.82 0.0
03 05:15 N 7 10.00 Fair CLR 37.4 30.2 75% 33 29.82 0.0
03 04:55 N 8 10.00 Fair CLR 39.2 32 75% 34 29.82 0.0
03 04:35 N 8 10.00 Fair CLR 39.2 33.8 81% 34 29.81 0.0
03 04:15 N 9 10.00 Fair CLR 42.8 35.6 76% 38 29.81 0.0
03 03:55 NW 10 10.00 Fair CLR 42.8 35.6 76% 38 29.8 0.0
03 03:35 N 8 10.00 Fair CLR 41 35.6 81% 36 29.8 0.0
03 03:15 N 8 10.00 Fair CLR 42.8 35.6 76% 39 29.79 0.0
03 02:55 N 10 10.00 Fair CLR 44.6 37.4 76% 40 29.79 0.0
03 02:35 N 10 10.00 Fair CLR 46.4 37.4 71% 42 29.78 0.0
03 02:15 N 13 10.00 Fair CLR 46.4 37.4 71% 41 29.78 0.0
03 01:55 N 13 10.00 Fair CLR 48.2 37.4 66% 43 29.78 0.0
03 01:35 N 12 10.00 Fair CLR 46.4 37.4 71% 42 29.78 0.0
03 01:15 N 14 10.00 Fair CLR 46.4 37.4 71% 41 29.77 0.0
03 00:55 N 16 10.00 Fair CLR 48.2 37.4 66% 43 29.77 0.0
03 00:35 N 13 G 17 10.00 Fair CLR 51.8 39.2 62% 29.75 0.0
03 00:15 N 14 10.00 Fair CLR 51.8 39.2 62% 29.74 0.0
02 23:55 N 14 10.00 Fair CLR 51.8 39.2 62% 29.74 0.0
02 23:35 N 17 G 21 10.00 Fair CLR 51.8 39.2 62% 29.73 0.0
02 23:15 N 16 G 23 10.00 Fair CLR 53.6 39.2 58% 29.72 0.0
02 22:55 N 18 10.00 Fair CLR 53.6 39.2 58% 29.72 0.0
02 22:35 N 16 10.00 Fair CLR 53.6 41 63% 29.72 0.0
02 22:15 N 18 10.00 Fair CLR 55.4 42.8 63% 29.71 0.0
02 21:55 N 20 G 23 10.00 Fair CLR 59 39.2 48% 29.7 0.0
02 21:35 N 8 10.00 Fair CLR 55.4 37.4 51% 29.69 0.0
02 21:15 N 7 10.00 Fair CLR 57.2 37.4 48% 29.68 0.0
02 20:55 N 9 10.00 Fair CLR 60.8 37.4 42% 29.67 0.0
02 20:35 NW 9 10.00 Fair CLR 62.6 39.2 42% 29.66 0.0
02 20:15 NW 10 10.00 Fair CLR 66.2 39.2 37% 29.66 0.0
02 19:55 NW 14 G 18 10.00 Fair CLR 69.8 41 35% 29.65 0.0
02 19:35 SW 8 G 13 10.00 Partly Cloudy SCT110 68 42.8 40% 29.66 0.0
02 19:15 SW 16 10.00 Partly Cloudy SCT110 69.8 42.8 38% 29.66 0.0
02 18:55 S 10 10.00 Partly Cloudy SCT100 69.8 39.2 33% 29.68 0.0
02 18:35 S 12 G 18 10.00 Partly Cloudy SCT100 69.8 37.4 31% 29.69 0.0
02 18:15 S 13 G 23 10.00 Partly Cloudy SCT110 69.8 37.4 31% 29.7 0.0
02 17:55 S 17 10.00 Partly Cloudy SCT110 69.8 37.4 31% 29.71 0.0
02 17:35 SW 14 G 21 10.00 Partly Cloudy SCT110 71.6 39.2 31% 29.72 0.0
02 17:15 S 16 G 21 10.00 Mostly Cloudy BKN100 69.8 37.4 31% 29.73 0.0
02 16:55 S 15 10.00 Mostly Cloudy BKN100 68 37.4 33% 29.75 0.0
02 16:35 SW 12 1.00 Mostly Cloudy BKN100 68 39.2 35% 29.76 0.0
02 16:15 SW 10 G 17 10.00 Mostly Cloudy BKN100 68 39.2 35% 29.78 0.0
02 15:55 SW 12 G 22 10.00 Partly Cloudy SCT100 66.2 37.4 35% 29.8 0.0
02 15:35 W 16 G 22 10.00 Partly Cloudy SCT100 66.2 37.4 35% 29.8 0.0
02 15:15 W 29 G 40 10.00 Partly Cloudy and Windy SCT100 66.2 37.4 35% 29.82 0.0
02 14:55 W 8 G 35 10.00 Fair CLR 66.2 37.4 35% 29.83 0.0
02 14:35 W 21 G 26 10.00 Partly Cloudy and Breezy SCT110 68 37.4 33% 29.82 0.0
02 14:15 W 20 G 26 10.00 Partly Cloudy SCT095 69.8 37.4 31% 29.83 0.0
02 13:55 W 20 G 26 10.00 Partly Cloudy SCT095 69.8 39.2 33% 29.83 0.0
02 13:35 SW 18 G 24 10.00 Partly Cloudy SCT095 69.8 37.4 31% 29.83 0.0
02 13:15 W 16 10.00 Partly Cloudy SCT095 69.8 39.2 33% 29.84 0.0
02 12:55 W 16 G 26 10.00 Partly Cloudy SCT095 69.8 39.2 33% 29.85 0.0
02 12:35 W 16 10.00 Fair CLR 69.8 41 35% 29.86 0.0
02 12:15 W 14 G 20 10.00 Fair CLR 68 41 38% 29.87 0.0
02 11:55 SW 9 10.00 Fair CLR 66.2 42.8 43% 29.88 0.0
02 11:35 SW 9 G 16 10.00 Fair CLR 62.6 39.2 42% 29.89 0.0
02 11:15 SW 10 10.00 Fair CLR 62.6 39.2 42% 29.91 0.0
02 10:55 SW 9 10.00 Fair CLR 59 37.4 45% 29.92 0.0
02 10:35 W 13 10.00 Fair CLR 57.2 37.4 48% 29.92 0.0
02 10:15 SW 12 10.00 Fair CLR 55.4 37.4 51% 29.93 0.0
02 09:55 SW 10 G 16 10.00 Fair CLR 53.6 35.6 51% 29.94 0.0
02 09:35 SW 9 10.00 Fair CLR 53.6 35.6 51% 29.95 0.0
02 09:15 SW 10 G 17 10.00 Fair CLR 50 35.6 58% 46 29.96 0.0
02 08:55 S 10 10.00 Fair CLR 46.4 33.8 62% 42 29.97 0.0
02 08:35 S 9 10.00 Fair CLR 44.6 33.8 66% 40 29.97 0.0
02 08:15 S 12 10.00 Fair CLR 42.8 32 66% 37 29.98 0.0
02 07:55 S 10 10.00 Partly Cloudy SCT110 41 30.2 66% 35 29.98 0.0
02 07:35 S 8 10.00 Partly Cloudy SCT110 39.2 30.2 70% 34 29.99 0.0
02 07:15 S 8 10.00 Fair CLR 37.4 30.2 75% 32 29.99 0.0
02 06:55 S 9 10.00 Fair CLR 37.4 28.4 70% 31 30 0.0
02 06:35 S 9 10.00 Fair CLR 37.4 28.4 70% 31 30 0.0
02 06:15 S 7 10.00 Fair CLR 35.6 28.4 75% 31 30 0.0
02 05:55 S 9 10.00 Fair CLR 35.6 28.4 75% 29 30.01 0.0
02 05:35 S 8 10.00 Fair CLR 35.6 28.4 75% 30 30.01 0.0
02 05:15 S 8 10.00 Mostly Cloudy BKN110 35.6 28.4 75% 30 30.02 0.0
02 04:55 S 8 10.00 Mostly Cloudy BKN110 35.6 28.4 75% 30 30.03 0.0
02 04:35 S 7 10.00 Mostly Cloudy BKN110 35.6 26.6 70% 31 30.03 0.0
02 04:15 S 7 10.00 Partly Cloudy SCT110 35.6 26.6 70% 31 30.04 0.0
02 03:55 S 6 10.00 Partly Cloudy SCT110 35.6 26.6 70% 31 30.04 0.0
02 03:35 S 6 10.00 Partly Cloudy SCT100 35.6 26.6 70% 31 30.05 0.0
02 03:15 S 6 10.00 Partly Cloudy SCT100 35.6 26.6 70% 31 30.05 0.0
02 02:55 S 6 10.00 Fair CLR 35.6 26.6 70% 31 30.05 0.0
02 02:35 S 7 10.00 Fair CLR 35.6 26.6 70% 31 30.06 0.0
02 02:15 S 7 10.00 Fair CLR 35.6 26.6 70% 31 30.06 0.0
02 01:55 S 6 10.00 Fair CLR 37.4 26.6 65% 33 30.07 0.0
02 01:35 S 6 10.00 Fair CLR 37.4 26.6 65% 33 30.07 0.0
02 01:15 S 6 10.00 Fair CLR 39.2 26.6 61% 36 30.08 0.0
02 00:55 S 6 10.00 Fair CLR 39.2 26.6 61% 36 30.08 0.0
02 00:35 S 6 10.00 Fair CLR 39.2 26.6 61% 36 30.08 0.0
02 00:15 S 6 10.00 Fair CLR 41 28.4 61% 38 30.08 0.0
01 23:55 S 3 10.00 Fair CLR 42.8 28.4 57% 30.08 0.0
01 23:35 S 3 10.00 Fair CLR 42.8 28.4 57% 30.08 0.0
01 23:15 S 5 10.00 Fair CLR 42.8 28.4 57% 41 30.09 0.0
01 22:55 SE 5 10.00 Fair CLR 42.8 26.6 53% 41 30.09 0.0
01 22:35 SE 5 10.00 Fair CLR 44.6 28.4 53% 43 30.09 0.0
01 22:15 SE 3 10.00 Fair CLR 42.8 28.4 57% 30.09 0.0
01 21:55 Calm 10.00 Fair CLR 46.4 26.6 46% 30.09 0.0
01 21:35 E 3 10.00 Fair CLR 48.2 26.6 43% 30.09 0.0
01 21:15 E 5 10.00 Fair CLR 48.2 26.6 43% 47 30.09 0.0
01 20:55 NE 5 10.00 Fair CLR 48.2 26.6 43% 47 30.09 0.0
01 20:15 N 5 10.00 Fair CLR 51.8 26.6 38% 30.08 0.0
01 19:55 N 6 10.00 Fair CLR 53.6 28.4 38% 30.08 0.0
01 19:35 N 5 10.00 Fair CLR 53.6 28.4 38% 30.08 0.0
01 19:15 N 7 10.00 Fair CLR 55.4 28.4 36% 30.08 0.0
01 18:55 NW 13 10.00 Fair CLR 55.4 28.4 36% 30.08 0.0
01 18:35 Calm 10.00 Fair CLR 55.4 28.4 36% 30.09 0.0
01 18:15 W 5 10.00 Fair CLR 55.4 28.4 36% 30.09 0.0
01 17:55 NW 7 10.00 Fair CLR 55.4 28.4 36% 30.09 0.0
01 17:35 W 7 10.00 Fair CLR 55.4 30.2 38% 30.09 0.0
01 17:15 W 5 10.00 Fair CLR 55.4 30.2 38% 30.09 0.0
01 16:55 W 6 10.00 Fair CLR 55.4 30.2 38% 30.1 0.0
01 16:35 Calm 10.00 Fair CLR 53.6 28.4 38% 30.1 0.0
01 16:15 N 6 10.00 Fair CLR 55.4 30.2 38% 30.1 0.0
01 15:55 N 8 10.00 Fair CLR 53.6 28.4 38% 30.11 0.0
01 15:35 NW 5 10.00 Fair CLR 53.6 28.4 38% 30.12 0.0
01 15:15 N 5 10.00 Fair CLR 53.6 28.4 38% 30.12 0.0
01 14:55 Calm 10.00 Partly Cloudy SCT060 53.6 30.2 41% 30.12 0.0
01 14:35 W 7 10.00 Partly Cloudy SCT060 51.8 30.2 44% 30.13 0.0
01 14:15 NW 8 10.00 Partly Cloudy SCT060 51.8 30.2 44% 30.13 0.0
01 13:55 NW 7 10.00 Partly Cloudy SCT060 50 28.4 43% 48 30.14 0.0
01 13:35 NW 3 10.00 Partly Cloudy SCT060 50 28.4 43% 30.14 0.0
01 13:15 N 7 10.00 Fair CLR 50 28.4 43% 48 30.14 0.0
01 12:55 Calm 10.00 Fair CLR 48.2 28.4 46% 30.15 0.0
01 12:35 NW 6 10.00 Fair CLR 48.2 28.4 46% 46 30.15 0.0
01 12:15 N 3 10.00 Fair CLR 46.4 28.4 50% 30.16 0.0
01 11:55 N 6 10.00 Fair CLR 46.4 28.4 50% 44 30.16 0.0
01 11:35 N 6 10.00 Fair CLR 46.4 28.4 50% 44 30.16 0.0
01 11:15 Calm 10.00 Fair CLR 44.6 28.4 53% 30.16 0.0
01 10:55 N 9 10.00 Fair CLR 44.6 28.4 53% 40 30.16 0.0
01 10:35 N 8 10.00 Fair CLR 44.6 28.4 53% 41 30.17 0.0
01 10:15 NW 7 10.00 Fair CLR 42.8 28.4 57% 39 30.17 0.0
01 09:55 N 5 10.00 Fair CLR 41 28.4 61% 38 30.17 0.0
01 09:35 N 7 10.00 Fair CLR 39.2 28.4 65% 35 30.17 0.0
01 09:15 N 7 10.00 Fair CLR 37.4 28.4 70% 33 30.17 0.0
01 08:55 N 8 10.00 Fair CLR 35.6 26.6 70% 30 30.17 0.0
01 08:35 N 8 10.00 Fair CLR 35.6 26.6 70% 30 30.16 0.0
01 08:15 N 7 10.00 Fair CLR 33.8 26.6 75% 28 30.16 0.0
01 07:55 N 7 10.00 Fair CLR 32 24.8 75% 26 30.16 0.0
01 07:35 N 6 10.00 Fair CLR 30.2 24.8 80% 25 30.16 0.0
01 07:15 N 6 10.00 Fair CLR 28.4 24.8 86% 23 30.15 0.0
01 06:55 N 7 10.00 Fair CLR 26.6 23 86% 20 30.14 0.0
01 06:35 N 3 10.00 Fair CLR 24.8 21.2 86% 30.14 0.0
01 06:15 N 5 10.00 Fair CLR 26.6 21.2 80% 22 30.14 0.0
01 05:55 NW 7 10.00 Fair CLR 26.6 21.2 80% 20 30.14 0.0
01 05:35 NW 5 10.00 Fair CLR 24.8 21.2 86% 20 30.13 0.0
01 05:15 N 3 10.00 Fair CLR 24.8 21.2 86% 30.13 0.0
01 04:55 N 5 10.00 Fair CLR 24.8 21.2 86% 20 30.13 0.0
01 04:35 N 5 10.00 Fair CLR 24.8 21.2 86% 20 30.12 0.0
01 04:15 N 5 10.00 Fair CLR 24.8 21.2 86% 20 30.12 0.0
01 03:55 NW 6 10.00 Fair CLR 24.8 21.2 86% 19 30.12 0.0
01 03:35 NW 5 10.00 Fair CLR 24.8 21.2 86% 20 30.12 0.0
01 03:15 N 5 10.00 Fair CLR 26.6 21.2 80% 22 30.12 0.0
01 02:55 N 5 10.00 Fair CLR 26.6 21.2 80% 22 30.11 0.0
01 02:35 N 6 10.00 Fair CLR 28.4 23 80% 23 30.12 0.0
01 02:15 N 6 10.00 Fair CLR 26.6 21.2 80% 21 30.12 0.0
01 01:55 N 5 10.00 Fair CLR 28.4 23 80% 24 30.12 0.0
01 01:35 N 6 10.00 Fair CLR 28.4 23 80% 23 30.12 0.0
01 01:15 N 6 10.00 Fair CLR 30.2 24.8 80% 25 30.12 0.0
01 00:55 N 7 10.00 Fair CLR 32 24.8 75% 26 30.12 0.0
01 00:35 N 8 10.00 Fair CLR 33.8 24.8 70% 28 30.12 0.0
01 00:15 N 8 10.00 Fair CLR 32 24.8 75% 25 30.12 0.0
30 23:55 N 8 10.00 Fair CLR 33.8 24.8 70% 28 30.11 0.0
30 23:35 N 8 10.00 Fair CLR 33.8 24.8 70% 28 30.11 0.0
30 23:15 N 9 10.00 NULL NULL 0 0 0% 30.12 0.0
30 22:56 Calm 10.00 Fair CLR 35.6 24.8 65% 30.12 0.0
30 22:35 N 12 10.00 Fair CLR 35.6 24.8 65% 28 30.12 0.0
Date Time (cdt) Wind (mph) Vis. (mi.) Weather Sky Cond. Air Dwpt Max. Min. Relative Humidity Wind Chill (°F) Heat Index (°F) altimeter (in) sea level (mb) 1 hr 3 hr 6 hr
6 hour
Temperature (ºF) Pressure Precipitation (in)